Time;durP1;ratioP1;P1;durP2;ratioP2;P2;SDS_P1;SDS_P2;PMS_P1;PMS_P2;Temp;Humidity;BMP_temperature;BMP_pressure;BME280_temperature;BME280_humidity;BME280_pressure;Samples;Min_cycle;Max_cycle;Signal;HPM_P1;HPM_P2
2024/01/25 00:01:37;;;;;;;19.52;5.53;;;;;10.80;99722.00;;;;5074489;28;20044;-69
2024/01/25 00:04:04;;;;;;;31.02;6.47;;;;;10.80;99724.00;;;;5074629;28;20127;-69
2024/01/25 00:06:31;;;;;;;22.90;4.65;;;;;10.80;99717.00;;;;5074890;28;20066;-69
2024/01/25 00:08:58;;;;;;;24.23;5.15;;;;;10.80;99733.00;;;;5073801;28;20053;-69
2024/01/25 00:11:25;;;;;;;23.67;4.40;;;;;10.80;99722.00;;;;5074319;28;20132;-68
2024/01/25 00:13:51;;;;;;;27.15;5.95;;;;;10.80;99722.00;;;;5075066;28;20048;-68
2024/01/25 00:16:18;;;;;;;21.42;4.80;;;;;10.80;99735.00;;;;5057813;28;20053;-69
2024/01/25 00:18:45;;;;;;;17.63;5.22;;;;;10.80;99725.00;;;;5075262;28;20044;-69
2024/01/25 00:21:11;;;;;;;20.80;5.18;;;;;10.90;99733.00;;;;5074747;28;20051;-69
2024/01/25 00:23:38;;;;;;;26.90;5.35;;;;;10.90;99730.00;;;;5074161;28;20107;-69
2024/01/25 00:26:04;;;;;;;28.88;5.50;;;;;10.90;99738.00;;;;5074447;28;20044;-69
2024/01/25 00:28:33;;;;;;;28.55;5.00;;;;;11.00;99739.00;;;;5074509;28;20090;-69
2024/01/25 00:31:00;;;;;;;26.48;4.82;;;;;11.00;99730.00;;;;5074257;28;20059;-69
2024/01/25 00:33:26;;;;;;;21.02;5.63;;;;;10.90;99723.00;;;;5074551;28;20052;-69
2024/01/25 00:35:54;;;;;;;19.92;4.38;;;;;10.90;99724.00;;;;5074580;28;20116;-68
2024/01/25 00:38:20;;;;;;;22.48;4.78;;;;;10.90;99727.00;;;;5075049;28;20566;-68
2024/01/25 00:40:47;;;;;;;24.88;5.30;;;;;10.90;99725.00;;;;5073451;28;20056;-67
2024/01/25 00:43:14;;;;;;;34.22;6.03;;;;;10.80;99729.00;;;;5074886;28;20048;-68
2024/01/25 00:45:41;;;;;;;26.45;5.18;;;;;10.80;99731.00;;;;5073733;28;20051;-68
2024/01/25 00:48:09;;;;;;;26.52;4.72;;;;;10.80;99728.00;;;;5074696;28;20586;-68
2024/01/25 00:50:37;;;;;;;24.10;5.85;;;;;10.80;99721.00;;;;5074392;28;20452;-68
2024/01/25 00:53:04;;;;;;;23.35;4.82;;;;;10.70;99723.00;;;;5074353;28;20051;-68
2024/01/25 00:55:31;;;;;;;24.35;5.35;;;;;10.80;99724.00;;;;5055971;28;20477;-68
2024/01/25 00:57:59;;;;;;;28.02;5.65;;;;;10.80;99722.00;;;;5075057;28;20055;-68
2024/01/25 01:00:26;;;;;;;19.67;4.30;;;;;10.80;99721.00;;;;5074743;28;20459;-68
2024/01/25 01:02:54;;;;;;;20.35;4.70;;;;;10.80;99725.00;;;;5074834;28;20079;-67
2024/01/25 01:05:21;;;;;;;28.02;5.93;;;;;10.70;99724.00;;;;5073347;28;20048;-68
2024/01/25 01:07:48;;;;;;;22.60;5.18;;;;;10.80;99715.00;;;;5073690;28;20041;-68
2024/01/25 01:10:15;;;;;;;20.77;5.05;;;;;10.70;99716.00;;;;5073942;28;20063;-68
2024/01/25 01:12:42;;;;;;;30.38;5.88;;;;;10.70;99724.00;;;;5074057;28;20044;-67
2024/01/25 01:15:08;;;;;;;26.42;5.60;;;;;10.70;99700.00;;;;5073468;28;20435;-68
2024/01/25 01:17:35;;;;;;;25.35;5.28;;;;;10.70;99704.00;;;;5072677;28;20144;-67
2024/01/25 01:20:02;;;;;;;28.15;5.03;;;;;10.60;99713.00;;;;5073281;28;20044;-68
2024/01/25 01:22:29;;;;;;;22.73;5.15;;;;;10.60;99716.00;;;;5075756;28;20052;-68
2024/01/25 01:24:56;;;;;;;23.02;5.05;;;;;10.60;99700.00;;;;5079888;28;20049;-68
2024/01/25 01:27:23;;;;;;;28.00;6.05;;;;;10.60;99701.00;;;;5087367;28;20048;-68
2024/01/25 01:29:49;;;;;;;19.77;4.35;;;;;10.60;99702.00;;;;5080707;28;20050;-68
2024/01/25 01:32:17;;;;;;;25.77;4.90;;;;;10.60;99711.00;;;;5096594;28;20048;-68
2024/01/25 01:34:43;;;;;;;23.15;4.32;;;;;10.60;99703.00;;;;5095114;28;20071;-68
2024/01/25 01:37:10;;;;;;;21.85;4.13;;;;;10.60;99708.00;;;;5091524;28;20055;-68
2024/01/25 01:39:37;;;;;;;30.40;5.60;;;;;10.60;99709.00;;;;5093568;28;20064;-68
2024/01/25 01:42:03;;;;;;;20.85;4.78;;;;;10.60;99715.00;;;;5090433;28;20052;-68
2024/01/25 01:44:30;;;;;;;26.45;5.20;;;;;10.60;99703.00;;;;5084319;28;20076;-68
2024/01/25 01:46:58;;;;;;;29.75;4.60;;;;;10.50;99708.00;;;;5077685;28;20051;-68
2024/01/25 01:49:25;;;;;;;22.30;4.70;;;;;10.50;99712.00;;;;5071710;28;20045;-69
2024/01/25 01:51:52;;;;;;;19.85;4.53;;;;;10.50;99731.00;;;;5073153;28;20115;-69
2024/01/25 01:54:19;;;;;;;24.33;4.93;;;;;10.50;99728.00;;;;5072898;28;20048;-67
2024/01/25 01:56:46;;;;;;;25.85;4.90;;;;;10.50;99725.00;;;;5082636;28;20430;-68
2024/01/25 01:59:13;;;;;;;18.17;4.90;;;;;10.50;99721.00;;;;5072737;28;20394;-68
2024/01/25 02:01:39;;;;;;;23.90;5.90;;;;;10.50;99723.00;;;;5073031;28;20138;-68
2024/01/25 02:04:06;;;;;;;28.17;5.47;;;;;10.50;99717.00;;;;5072374;28;20091;-68
2024/01/25 02:06:33;;;;;;;19.48;5.07;;;;;10.40;99724.00;;;;5072940;28;20048;-68
2024/01/25 02:09:00;;;;;;;21.23;5.82;;;;;10.40;99731.00;;;;5072564;28;20789;-68
2024/01/25 02:11:27;;;;;;;26.23;5.63;;;;;10.40;99729.00;;;;5071607;28;20436;-68
2024/01/25 02:13:56;;;;;;;19.90;4.18;;;;;10.30;99727.00;;;;5071054;28;20059;-68
2024/01/25 02:16:23;;;;;;;23.77;4.82;;;;;10.40;99743.00;;;;5071874;28;20075;-68
2024/01/25 02:18:50;;;;;;;20.38;4.63;;;;;10.30;99734.00;;;;5072471;28;20455;-68
2024/01/25 02:21:17;;;;;;;25.08;5.05;;;;;10.30;99728.00;;;;5072804;28;20079;-68
2024/01/25 02:23:43;;;;;;;24.00;4.82;;;;;10.20;99730.00;;;;5072067;28;20067;-69
2024/01/25 02:26:10;;;;;;;26.98;5.35;;;;;10.20;99733.00;;;;5072544;28;20070;-68
2024/01/25 02:28:37;;;;;;;19.45;4.55;;;;;10.20;99741.00;;;;5072822;28;20123;-68
2024/01/25 02:31:03;;;;;;;21.23;5.15;;;;;10.20;99749.00;;;;5072816;28;20131;-69
2024/01/25 02:33:30;;;;;;;30.10;6.25;;;;;10.20;99743.00;;;;5071741;28;20126;-69
2024/01/25 02:35:57;;;;;;;22.55;5.13;;;;;10.20;99738.00;;;;5072300;28;20048;-69
2024/01/25 02:38:24;;;;;;;23.38;4.65;;;;;10.10;99731.00;;;;5072367;28;20123;-69
2024/01/25 02:40:53;;;;;;;28.55;5.55;;;;;10.10;99732.00;;;;5071185;28;20052;-70
2024/01/25 02:43:20;;;;;;;32.78;5.78;;;;;10.10;99739.00;;;;5071651;28;20044;-70
2024/01/25 02:45:48;;;;;;;24.48;5.03;;;;;10.10;99742.00;;;;5072227;28;20102;-70
2024/01/25 02:48:15;;;;;;;22.67;4.78;;;;;10.10;99743.00;;;;5071147;28;20053;-70
2024/01/25 02:50:42;;;;;;;24.50;5.07;;;;;10.00;99735.00;;;;5070816;28;20059;-71
2024/01/25 02:53:08;;;;;;;23.23;5.03;;;;;10.00;99730.00;;;;5072144;28;20067;-70
2024/01/25 02:55:35;;;;;;;27.92;5.30;;;;;9.90;99726.00;;;;5071693;28;20508;-70
2024/01/25 02:58:02;;;;;;;31.75;5.93;;;;;9.90;99724.00;;;;5071004;28;20044;-70
2024/01/25 03:00:28;;;;;;;20.88;5.35;;;;;9.90;99723.00;;;;5072045;28;20051;-71
2024/01/25 03:02:55;;;;;;;29.77;5.05;;;;;9.90;99727.00;;;;5072351;28;20048;-70
2024/01/25 03:05:21;;;;;;;29.65;4.75;;;;;9.80;99719.00;;;;5071527;28;20040;-71
2024/01/25 03:07:48;;;;;;;32.03;6.25;;;;;9.80;99724.00;;;;5072174;28;20576;-71
2024/01/25 03:10:15;;;;;;;25.00;4.80;;;;;9.80;99742.00;;;;5071785;28;20072;-71
2024/01/25 03:12:42;;;;;;;21.33;4.28;;;;;9.80;99742.00;;;;5071738;28;20049;-70
2024/01/25 03:15:11;;;;;;;24.95;5.45;;;;;9.80;99738.00;;;;5071628;28;20041;-71
2024/01/25 03:17:37;;;;;;;21.90;4.00;;;;;9.80;99731.00;;;;5071954;28;20094;-70
2024/01/25 03:20:04;;;;;;;25.80;5.68;;;;;9.80;99738.00;;;;5070856;28;20068;-70
2024/01/25 03:22:31;;;;;;;28.15;5.07;;;;;9.80;99746.00;;;;5070746;28;20075;-71
2024/01/25 03:24:58;;;;;;;20.50;5.10;;;;;9.80;99740.00;;;;5070092;28;20047;-70
2024/01/25 03:27:25;;;;;;;21.63;5.47;;;;;9.70;99725.00;;;;5070680;28;20124;-71
2024/01/25 03:29:51;;;;;;;23.05;4.97;;;;;9.70;99738.00;;;;5072453;28;20053;-70
2024/01/25 03:32:18;;;;;;;25.60;5.28;;;;;9.70;99729.00;;;;5074084;28;20040;-70
2024/01/25 03:34:44;;;;;;;19.70;4.63;;;;;9.60;99731.00;;;;5074628;28;20131;-71
2024/01/25 03:37:11;;;;;;;31.60;5.78;;;;;9.60;99739.00;;;;5075144;28;20119;-71
2024/01/25 03:39:38;;;;;;;22.38;5.80;;;;;9.60;99730.00;;;;5075119;28;20397;-71
2024/01/25 03:42:04;;;;;;;21.02;4.53;;;;;9.60;99735.00;;;;5073961;28;20044;-71
2024/01/25 03:44:31;;;;;;;27.05;5.30;;;;;9.50;99739.00;;;;5073290;28;20060;-70
2024/01/25 03:46:57;;;;;;;24.55;5.10;;;;;9.50;99749.00;;;;5075215;28;20124;-71
2024/01/25 03:49:24;;;;;;;31.67;5.00;;;;;9.50;99728.00;;;;5074989;28;20136;-71
2024/01/25 03:51:51;;;;;;;27.33;4.82;;;;;9.50;99723.00;;;;5075047;28;20054;-70
2024/01/25 03:54:17;;;;;;;25.85;4.80;;;;;9.50;99733.00;;;;5074727;28;20037;-72
2024/01/25 03:56:44;;;;;;;22.83;4.65;;;;;9.40;99743.00;;;;5074972;28;20119;-71
2024/01/25 03:59:13;;;;;;;23.63;4.75;;;;;9.40;99733.00;;;;5074905;28;20416;-71
2024/01/25 04:01:49;;;;;;;25.95;5.50;;;;;9.40;99745.00;;;;5056934;28;20052;-72
2024/01/25 04:04:16;;;;;;;30.85;5.32;;;;;9.40;99748.00;;;;5073234;28;20040;-71
2024/01/25 04:06:45;;;;;;;27.75;5.82;;;;;9.40;99745.00;;;;5073732;28;20401;-71
2024/01/25 04:09:12;;;;;;;27.50;5.65;;;;;9.40;99745.00;;;;5074553;28;20044;-71
2024/01/25 04:11:38;;;;;;;29.05;5.95;;;;;9.40;99750.00;;;;5074699;28;20041;-71
2024/01/25 04:14:05;;;;;;;27.35;5.90;;;;;9.40;99757.00;;;;5074106;28;20041;-71
2024/01/25 04:16:33;;;;;;;21.33;4.72;;;;;9.30;99759.00;;;;5073823;28;20439;-71
2024/01/25 04:19:00;;;;;;;23.20;4.82;;;;;9.30;99764.00;;;;5074731;28;20047;-71
2024/01/25 04:21:27;;;;;;;26.63;5.50;;;;;9.30;99785.00;;;;5074605;28;20451;-71
2024/01/25 04:23:54;;;;;;;33.20;6.60;;;;;9.30;99776.00;;;;5074107;28;20048;-71
2024/01/25 04:26:21;;;;;;;25.88;5.38;;;;;9.30;99770.00;;;;5074303;28;20040;-71
2024/01/25 04:28:47;;;;;;;28.52;5.63;;;;;9.30;99779.00;;;;5074412;28;20062;-71
2024/01/25 04:31:14;;;;;;;25.95;4.95;;;;;9.30;99777.00;;;;5074684;28;20048;-71
2024/01/25 04:33:41;;;;;;;28.08;6.97;;;;;9.30;99775.00;;;;5073794;28;20059;-72
2024/01/25 04:36:14;;;;;;;23.00;5.05;;;;;9.20;99772.00;;;;5074301;28;20102;-71
2024/01/25 04:38:40;;;;;;;29.73;5.25;;;;;9.10;99784.00;;;;5074189;28;20049;-71
2024/01/25 04:41:07;;;;;;;24.48;5.15;;;;;9.10;99781.00;;;;5073439;28;20040;-72
2024/01/25 04:43:38;;;;;;;30.05;5.65;;;;;9.10;99775.00;;;;5072427;28;20485;-71
2024/01/25 04:46:04;;;;;;;22.55;5.30;;;;;9.10;99779.00;;;;5072602;28;20075;-71
2024/01/25 04:48:31;;;;;;;31.25;6.53;;;;;9.10;99782.00;;;;5072525;28;20255;-71
2024/01/25 04:50:59;;;;;;;28.05;4.90;;;;;9.10;99769.00;;;;5073718;28;20044;-69
2024/01/25 04:53:26;;;;;;;26.35;4.82;;;;;9.00;99775.00;;;;5073388;28;20140;-71
2024/01/25 04:55:54;;;;;;;26.17;4.82;;;;;9.00;99781.00;;;;5073648;28;20040;-70
2024/01/25 04:58:21;;;;;;;31.05;5.22;;;;;9.00;99786.00;;;;5073878;28;20071;-70
2024/01/25 05:00:50;;;;;;;18.25;5.57;;;;;9.00;99784.00;;;;5073719;28;20041;-69
2024/01/25 05:03:18;;;;;;;32.30;5.22;;;;;9.00;99792.00;;;;5072838;28;20123;-69
2024/01/25 05:05:45;;;;;;;34.40;5.95;;;;;9.00;99796.00;;;;5072953;28;20094;-69
2024/01/25 05:08:12;;;;;;;30.88;6.82;;;;;9.00;99796.00;;;;5073507;28;20051;-69
2024/01/25 05:10:38;;;;;;;21.20;4.53;;;;;9.00;99802.00;;;;5072301;28;20080;-68
2024/01/25 05:13:05;;;;;;;28.23;6.25;;;;;9.10;99808.00;;;;5073703;28;20044;-68
2024/01/25 05:15:32;;;;;;;21.63;5.13;;;;;9.00;99821.00;;;;5073155;28;20445;-68
2024/01/25 05:17:58;;;;;;;28.15;5.28;;;;;9.00;99836.00;;;;5073584;28;20037;-68
2024/01/25 05:20:31;;;;;;;21.23;5.35;;;;;8.90;99826.00;;;;5073301;28;20049;-67
2024/01/25 05:22:59;;;;;;;28.80;5.40;;;;;8.80;99828.00;;;;5072520;28;20511;-67
2024/01/25 05:25:26;;;;;;;19.88;5.53;;;;;8.70;99817.00;;;;5071453;28;20639;-68
2024/01/25 05:27:53;;;;;;;27.20;5.25;;;;;8.80;99822.00;;;;5073263;28;20048;-68
2024/01/25 05:30:23;;;;;;;23.70;5.68;;;;;8.90;99832.00;;;;5073344;28;20056;-67
2024/01/25 05:32:50;;;;;;;28.75;5.85;;;;;8.90;99840.00;;;;5073215;28;20051;-69
2024/01/25 05:35:17;;;;;;;23.05;5.35;;;;;8.80;99842.00;;;;5072312;28;20041;-68
2024/01/25 05:37:44;;;;;;;26.30;5.35;;;;;8.80;99847.00;;;;5072031;28;20060;-68
2024/01/25 05:40:11;;;;;;;30.48;6.05;;;;;8.80;99841.00;;;;5073107;28;20152;-69
2024/01/25 05:42:39;;;;;;;22.25;5.55;;;;;8.70;99849.00;;;;5071759;28;20489;-70
2024/01/25 05:45:06;;;;;;;29.40;5.70;;;;;8.70;99841.00;;;;5072270;28;20405;-69
2024/01/25 05:47:34;;;;;;;32.22;5.93;;;;;8.70;99844.00;;;;5073056;28;20072;-68
2024/01/25 05:50:02;;;;;;;27.38;6.20;;;;;8.80;99839.00;;;;5072951;28;20417;-68
2024/01/25 05:52:29;;;;;;;27.35;5.85;;;;;8.80;99848.00;;;;5070914;28;20044;-68
2024/01/25 05:54:55;;;;;;;34.38;6.38;;;;;8.80;99855.00;;;;5072101;28;20044;-69
2024/01/25 05:57:22;;;;;;;26.45;6.18;;;;;8.80;99855.00;;;;5071495;28;20040;-70
2024/01/25 05:59:49;;;;;;;29.50;7.68;;;;;8.70;99854.00;;;;5072700;28;20049;-69
2024/01/25 06:02:15;;;;;;;32.03;6.13;;;;;8.70;99847.00;;;;5072702;28;20104;-69
2024/01/25 06:04:42;;;;;;;27.27;6.25;;;;;8.60;99850.00;;;;5071608;28;20041;-69
2024/01/25 06:07:09;;;;;;;30.90;6.10;;;;;8.60;99857.00;;;;5072460;28;20036;-70
2024/01/25 06:09:35;;;;;;;30.00;6.95;;;;;8.50;99853.00;;;;5072505;28;20067;-72
2024/01/25 06:12:04;;;;;;;30.27;6.07;;;;;8.50;99847.00;;;;5072236;28;20049;-70
2024/01/25 06:14:31;;;;;;;22.83;5.25;;;;;8.50;99853.00;;;;5070442;28;20597;-69
2024/01/25 06:16:57;;;;;;;25.90;5.40;;;;;8.50;99854.00;;;;5072238;28;20050;-67
2024/01/25 06:19:24;;;;;;;28.65;5.70;;;;;8.50;99864.00;;;;5071132;28;20079;-68
2024/01/25 06:21:50;;;;;;;21.02;5.80;;;;;8.50;99853.00;;;;5072364;28;20505;-69
2024/01/25 06:24:17;;;;;;;26.23;6.38;;;;;8.50;99846.00;;;;5071633;28;20063;-68
2024/01/25 06:26:44;;;;;;;25.73;6.15;;;;;8.50;99850.00;;;;5072155;28;20457;-68
2024/01/25 06:29:10;;;;;;;25.40;6.40;;;;;8.50;99853.00;;;;5071060;28;20600;-69
2024/01/25 06:31:44;;;;;;;31.38;7.45;;;;;8.50;99855.00;;;;5071096;28;20386;-68
2024/01/25 06:34:10;;;;;;;25.60;5.43;;;;;8.50;99855.00;;;;5070342;28;20124;-68
2024/01/25 06:36:37;;;;;;;29.42;5.93;;;;;8.40;99849.00;;;;5072862;28;20110;-68
2024/01/25 06:39:04;;;;;;;34.65;6.82;;;;;8.30;99850.00;;;;5072703;28;20091;-69
2024/01/25 06:41:31;;;;;;;24.83;5.63;;;;;8.30;99843.00;;;;5071533;28;20581;-68
2024/01/25 06:43:57;;;;;;;26.15;6.13;;;;;8.30;99838.00;;;;5072185;28;20405;-68
2024/01/25 06:46:24;;;;;;;25.75;6.25;;;;;8.30;99839.00;;;;5072350;28;20652;-68
2024/01/25 06:48:51;;;;;;;24.95;5.85;;;;;8.30;99844.00;;;;5071931;28;20051;-68
2024/01/25 06:51:18;;;;;;;27.90;5.95;;;;;8.20;99845.00;;;;5072332;28;20639;-69
2024/01/25 06:53:45;;;;;;;20.40;5.55;;;;;8.20;99848.00;;;;5071488;28;20049;-69
2024/01/25 06:56:11;;;;;;;31.52;6.43;;;;;8.20;99840.00;;;;5070822;28;20064;-68
2024/01/25 06:58:38;;;;;;;30.17;6.35;;;;;8.20;99838.00;;;;5071935;28;20040;-70
2024/01/25 07:01:05;;;;;;;20.58;5.82;;;;;8.20;99847.00;;;;5071911;28;20390;-71
2024/01/25 07:03:32;;;;;;;20.80;6.10;;;;;8.20;99846.00;;;;5071393;28;20118;-69
2024/01/25 07:05:59;;;;;;;29.70;6.82;;;;;8.20;99851.00;;;;5075855;28;20401;-66
2024/01/25 07:08:25;;;;;;;23.52;6.22;;;;;8.20;99855.00;;;;5074485;28;20094;-66
2024/01/25 07:10:52;;;;;;;34.97;7.28;;;;;8.20;99854.00;;;;5075613;28;20477;-66
2024/01/25 07:13:20;;;;;;;27.60;6.55;;;;;8.20;99855.00;;;;5074347;28;20048;-67
2024/01/25 07:15:48;;;;;;;23.38;5.97;;;;;8.20;99856.00;;;;5075303;28;20082;-67
2024/01/25 07:18:15;;;;;;;27.92;5.90;;;;;8.20;99855.00;;;;5074439;28;20048;-67
2024/01/25 07:20:42;;;;;;;25.48;7.20;;;;;8.20;99861.00;;;;5073898;28;20135;-67
2024/01/25 07:23:08;;;;;;;30.10;7.07;;;;;8.20;99858.00;;;;5075372;28;20454;-68
2024/01/25 07:25:35;;;;;;;34.47;6.53;;;;;8.30;99855.00;;;;5074398;28;20115;-68
2024/01/25 07:28:02;;;;;;;27.55;6.88;;;;;8.30;99852.00;;;;5075114;28;20067;-67
2024/01/25 07:30:29;;;;;;;32.28;7.85;;;;;8.40;99838.00;;;;5075115;28;20518;-67
2024/01/25 07:32:55;;;;;;;27.67;6.63;;;;;8.40;99847.00;;;;5075086;28;20135;-67
2024/01/25 07:35:23;;;;;;;27.60;7.43;;;;;8.40;99843.00;;;;5074405;28;20044;-66
2024/01/25 07:37:50;;;;;;;27.20;6.90;;;;;8.30;99837.00;;;;5074976;28;20119;-66
2024/01/25 07:40:17;;;;;;;33.00;7.30;;;;;8.30;99829.00;;;;5074778;28;20417;-65
2024/01/25 07:42:43;;;;;;;28.38;6.32;;;;;8.40;99830.00;;;;5074916;28;20051;-66
2024/01/25 07:45:12;;;;;;;29.05;7.00;;;;;8.30;99837.00;;;;5074141;28;20044;-66
2024/01/25 07:47:43;;;;;;;23.50;7.03;;;;;8.10;99845.00;;;;5074596;28;20477;-66
2024/01/25 07:50:10;;;;;;;27.50;6.53;;;;;7.90;99843.00;;;;5073461;28;20063;-66
2024/01/25 07:52:37;;;;;;;30.02;6.53;;;;;7.90;99843.00;;;;5074875;28;20115;-66
2024/01/25 07:55:04;;;;;;;32.88;7.63;;;;;7.90;99836.00;;;;5074024;28;20128;-66
2024/01/25 07:57:32;;;;;;;28.58;7.65;;;;;8.00;99833.00;;;;5073439;28;20722;-66
2024/01/25 08:00:04;;;;;;;28.20;6.95;;;;;8.10;99844.00;;;;5074617;28;20121;-66
2024/01/25 08:02:30;;;;;;;29.70;6.78;;;;;8.20;99840.00;;;;5074621;28;20068;-66
2024/01/25 08:04:57;;;;;;;24.08;6.20;;;;;8.30;99841.00;;;;5074199;28;20044;-65
2024/01/25 08:07:24;;;;;;;25.48;6.03;;;;;8.30;99835.00;;;;5074347;28;20043;-66
2024/01/25 08:09:53;;;;;;;26.65;6.30;;;;;8.40;99841.00;;;;5074443;28;20072;-66
2024/01/25 08:12:19;;;;;;;29.17;6.50;;;;;8.50;99843.00;;;;5074160;28;20037;-66
2024/01/25 08:14:46;;;;;;;26.75;6.57;;;;;8.40;99846.00;;;;5073730;28;20056;-66
2024/01/25 08:17:12;;;;;;;21.88;6.43;;;;;8.30;99846.00;;;;5073295;28;20588;-67
2024/01/25 08:19:39;;;;;;;28.63;6.30;;;;;8.20;99849.00;;;;5074164;28;20051;-67
2024/01/25 08:22:06;;;;;;;25.88;5.85;;;;;8.10;99848.00;;;;5072798;28;20048;-67
2024/01/25 08:24:32;;;;;;;28.50;6.88;;;;;8.10;99851.00;;;;5073440;28;20050;-67
2024/01/25 08:26:59;;;;;;;25.30;6.10;;;;;8.10;99856.00;;;;5074086;28;20055;-67
2024/01/25 08:29:26;;;;;;;21.33;6.68;;;;;8.20;99858.00;;;;5074139;28;20037;-67
2024/01/25 08:31:52;;;;;;;28.30;6.80;;;;;8.40;99853.00;;;;5074151;28;20041;-67
2024/01/25 08:34:21;;;;;;;25.33;5.30;;;;;8.60;99846.00;;;;5072034;28;20049;-68
2024/01/25 08:36:47;;;;;;;32.15;6.90;;;;;8.70;99853.00;;;;5073822;28;20119;-67
2024/01/25 08:39:14;;;;;;;30.65;6.45;;;;;8.80;99853.00;;;;5072500;28;20049;-67
2024/01/25 08:41:42;;;;;;;20.60;6.07;;;;;8.90;99854.00;;;;5072657;28;20474;-68
2024/01/25 08:44:08;;;;;;;25.13;6.25;;;;;9.00;99865.00;;;;5073227;28;20075;-67
2024/01/25 08:46:35;;;;;;;30.15;6.40;;;;;9.00;99861.00;;;;5073815;28;20142;-68
2024/01/25 08:49:07;;;;;;;31.25;7.15;;;;;9.10;99868.00;;;;5073557;28;20528;-68
2024/01/25 08:51:34;;;;;;;32.00;7.20;;;;;9.20;99871.00;;;;5073714;28;20651;-67
2024/01/25 08:54:01;;;;;;;32.08;6.53;;;;;9.30;99874.00;;;;5071820;28;20489;-67
2024/01/25 08:56:27;;;;;;;41.38;11.65;;;;;9.40;99862.00;;;;5072089;28;20041;-67
2024/01/25 08:58:54;;;;;;;26.83;6.60;;;;;9.40;99864.00;;;;5073592;28;20049;-67
2024/01/25 09:01:20;;;;;;;30.33;10.18;;;;;9.50;99870.00;;;;5072204;28;20049;-67
2024/01/25 09:03:47;;;;;;;33.67;10.38;;;;;9.50;99867.00;;;;5071546;28;20108;-66
2024/01/25 09:06:15;;;;;;;25.88;6.28;;;;;9.70;99865.00;;;;5073150;28;20098;-67
2024/01/25 09:08:42;;;;;;;26.00;7.25;;;;;9.70;99868.00;;;;5073217;28;20056;-67
2024/01/25 09:11:08;;;;;;;27.83;6.78;;;;;9.90;99872.00;;;;5073163;28;20513;-67
2024/01/25 09:13:35;;;;;;;23.48;5.32;;;;;10.00;99875.00;;;;5072820;28;20068;-67
2024/01/25 09:16:11;;;;;;;27.00;6.35;;;;;10.00;99878.00;;;;5073157;28;20048;-67
2024/01/25 09:18:38;;;;;;;27.27;6.45;;;;;10.20;99871.00;;;;5073205;28;20064;-67
2024/01/25 09:21:05;;;;;;;32.67;6.95;;;;;10.20;99881.00;;;;5073070;28;20044;-66
2024/01/25 09:23:32;;;;;;;25.35;6.97;;;;;10.20;99874.00;;;;5072484;28;20046;-66
2024/01/25 09:25:59;;;;;;;33.55;6.20;;;;;10.10;99870.00;;;;5072838;28;20055;-65
2024/01/25 09:28:25;;;;;;;27.45;6.05;;;;;10.30;99873.00;;;;5072913;28;20068;-66
2024/01/25 09:30:52;;;;;;;24.48;6.50;;;;;10.30;99870.00;;;;5072868;28;20461;-67
2024/01/25 09:33:19;;;;;;;33.67;7.57;;;;;10.40;99869.00;;;;5072820;28;20044;-68
2024/01/25 09:35:47;;;;;;;32.10;6.30;;;;;10.50;99871.00;;;;5072426;28;20497;-67
2024/01/25 09:38:15;;;;;;;30.10;9.70;;;;;10.60;99869.00;;;;5072959;28;20129;-67
2024/01/25 09:40:42;;;;;;;30.25;7.18;;;;;10.70;99884.00;;;;5072630;28;20128;-65
2024/01/25 09:43:09;;;;;;;28.10;6.63;;;;;10.80;99883.00;;;;5072629;28;20067;-65
2024/01/25 09:45:36;;;;;;;31.30;6.53;;;;;10.80;99880.00;;;;5072142;28;20497;-65
2024/01/25 09:48:04;;;;;;;25.88;5.63;;;;;10.80;99876.00;;;;5071533;28;20036;-65
2024/01/25 09:50:33;;;;;;;36.80;7.95;;;;;10.90;99880.00;;;;5072560;28;20067;-65
2024/01/25 09:53:16;;;;;;;31.80;8.55;;;;;11.00;99880.00;;;;5071769;28;20095;-66
2024/01/25 09:55:46;;;;;;;30.38;7.57;;;;;11.00;99881.00;;;;5071929;28;20123;-66
2024/01/25 09:58:14;;;;;;;27.52;6.65;;;;;11.20;99878.00;;;;5071177;28;20131;-67
2024/01/25 10:00:42;;;;;;;27.05;6.60;;;;;11.30;99878.00;;;;5071330;28;20048;-67
2024/01/25 10:03:09;;;;;;;31.83;7.90;;;;;11.40;99884.00;;;;5072472;28;20115;-67
2024/01/25 10:05:36;;;;;;;32.25;7.63;;;;;11.40;99885.00;;;;5072384;28;20055;-66
2024/01/25 10:08:03;;;;;;;25.77;6.03;;;;;11.40;99885.00;;;;5073484;28;20397;-66
2024/01/25 10:10:32;;;;;;;24.90;5.45;;;;;11.40;99873.00;;;;5073098;28;20058;-65
2024/01/25 10:12:59;;;;;;;33.95;6.15;;;;;11.40;99871.00;;;;5073121;28;20056;-66
2024/01/25 10:15:26;;;;;;;27.30;6.70;;;;;11.50;99869.00;;;;5072835;28;20493;-66
2024/01/25 10:17:52;;;;;;;31.10;6.53;;;;;11.60;99869.00;;;;5072504;28;20072;-66
2024/01/25 10:20:42;;;;;;;27.40;6.97;;;;;11.70;99871.00;;;;5072053;28;20044;-65
2024/01/25 10:23:09;;;;;;;23.42;8.57;;;;;11.80;99880.00;;;;5072181;28;20036;-66
2024/01/25 10:25:37;;;;;;;20.63;6.40;;;;;11.90;99886.00;;;;5071457;28;20493;-65
2024/01/25 10:28:05;;;;;;;26.95;7.82;;;;;11.90;99872.00;;;;5070729;28;20569;-66
2024/01/25 10:30:33;;;;;;;27.58;7.63;;;;;12.00;99880.00;;;;5072041;28;20044;-66
2024/01/25 10:33:01;;;;;;;22.23;6.40;;;;;12.00;99872.00;;;;5072080;28;20559;-66
2024/01/25 10:35:28;;;;;;;35.53;9.13;;;;;11.90;99869.00;;;;5071396;28;20063;-66
2024/01/25 10:37:56;;;;;;;32.92;8.35;;;;;11.90;99873.00;;;;5072002;28;20386;-65
2024/01/25 10:40:23;;;;;;;28.05;8.15;;;;;11.80;99866.00;;;;5071355;28;20492;-65
2024/01/25 10:42:50;;;;;;;26.75;6.03;;;;;11.80;99877.00;;;;5071839;28;20506;-65
2024/01/25 10:45:18;;;;;;;26.10;6.20;;;;;11.90;99877.00;;;;5053505;28;20048;-66
2024/01/25 10:47:48;;;;;;;28.55;6.55;;;;;11.90;99877.00;;;;5071750;28;20044;-65
2024/01/25 10:50:15;;;;;;;22.13;5.70;;;;;11.90;99879.00;;;;5054050;28;20048;-66
2024/01/25 10:52:42;;;;;;;27.80;5.72;;;;;12.00;99888.00;;;;5070739;28;20051;-66
2024/01/25 10:55:11;;;;;;;21.10;5.43;;;;;12.00;99884.00;;;;5071245;28;20044;-69
2024/01/25 10:57:42;;;;;;;25.13;6.18;;;;;12.10;99883.00;;;;5072026;28;20502;-65
2024/01/25 11:00:11;;;;;;;21.98;5.55;;;;;12.20;99883.00;;;;5070837;28;20060;-66
2024/01/25 11:02:39;;;;;;;24.00;6.05;;;;;12.20;99879.00;;;;5072052;28;20512;-66
2024/01/25 11:05:11;;;;;;;27.17;5.57;;;;;12.20;99883.00;;;;5069931;28;20107;-66
2024/01/25 11:07:46;;;;;;;28.00;5.47;;;;;12.20;99885.00;;;;5071699;28;20508;-66
2024/01/25 11:10:21;;;;;;;24.50;5.82;;;;;12.20;99882.00;;;;5071670;28;20055;-66
2024/01/25 11:12:59;;;;;;;30.85;5.65;;;;;12.20;99868.00;;;;5071349;28;20046;-66
2024/01/25 11:15:34;;;;;;;26.20;6.30;;;;;12.30;99861.00;;;;5071121;28;20040;-65
2024/01/25 11:18:02;;;;;;;21.48;4.78;;;;;12.40;99858.00;;;;5071669;28;20079;-65
2024/01/25 11:20:31;;;;;;;27.73;5.47;;;;;12.50;99860.00;;;;5071786;28;20040;-66
2024/01/25 11:23:01;;;;;;;24.55;4.55;;;;;12.50;99857.00;;;;5071636;28;20686;-66
2024/01/25 11:25:32;;;;;;;23.38;5.97;;;;;12.50;99858.00;;;;5069771;28;20047;-66
2024/01/25 11:28:00;;;;;;;28.35;5.70;;;;;12.50;99850.00;;;;5071630;28;20389;-66
2024/01/25 11:30:29;;;;;;;21.05;5.30;;;;;12.50;99848.00;;;;5070075;28;20072;-66
2024/01/25 11:32:56;;;;;;;25.17;5.43;;;;;12.50;99841.00;;;;5071506;28;20507;-66
2024/01/25 11:35:22;;;;;;;27.67;5.72;;;;;12.40;99840.00;;;;5069504;28;20051;-66
2024/01/25 11:37:52;;;;;;;22.90;5.45;;;;;12.30;99849.00;;;;5070005;28;20106;-66
2024/01/25 11:40:20;;;;;;;29.80;6.30;;;;;12.40;99842.00;;;;5071414;28;20071;-66
2024/01/25 11:42:50;;;;;;;22.55;5.03;;;;;12.60;99836.00;;;;5071305;28;20098;-66
2024/01/25 11:45:17;;;;;;;18.08;5.05;;;;;12.70;99833.00;;;;5070845;28;20083;-65
2024/01/25 11:47:44;;;;;;;22.90;5.60;;;;;12.70;99833.00;;;;5071478;28;20127;-66
2024/01/25 11:50:12;;;;;;;25.98;5.95;;;;;12.80;99835.00;;;;5071270;28;20078;-66
2024/01/25 11:52:39;;;;;;;25.23;6.15;;;;;12.80;99833.00;;;;5074507;28;20131;-65
2024/01/25 11:55:08;;;;;;;31.65;7.18;;;;;12.80;99811.00;;;;5074480;28;20044;-65
2024/01/25 11:57:43;;;;;;;28.08;5.82;;;;;12.80;99806.00;;;;5074788;28;20040;-64
2024/01/25 12:00:13;;;;;;;23.27;5.22;;;;;12.70;99820.00;;;;5074785;28;20040;-66
2024/01/25 12:02:40;;;;;;;28.25;5.15;;;;;12.40;99817.00;;;;5075032;28;20102;-65
2024/01/25 12:05:09;;;;;;;21.48;4.88;;;;;12.40;99803.00;;;;5074093;28;20048;-65
2024/01/25 12:07:39;;;;;;;19.77;5.15;;;;;12.40;99809.00;;;;5073828;28;20086;-65
2024/01/25 12:10:08;;;;;;;25.00;5.57;;;;;12.50;99809.00;;;;5075500;28;20052;-65
2024/01/25 12:12:37;;;;;;;23.25;5.93;;;;;12.50;99799.00;;;;5075860;28;20049;-64
2024/01/25 12:15:05;;;;;;;26.33;5.32;;;;;12.50;99800.00;;;;5076068;28;20135;-65